createdAt,value
2022-12-03T00:00:38.884Z,85.50
2022-12-03T00:02:57.263Z,86.72
2022-12-03T00:05:14.228Z,86.29
2022-12-03T00:07:33.126Z,85.27
2022-12-03T00:09:50.211Z,86.03
2022-12-03T00:12:08.293Z,85.89
2022-12-03T00:14:25.668Z,86.94
2022-12-03T00:16:42.660Z,85.15
2022-12-03T00:18:59.786Z,85.64
2022-12-03T00:21:17.702Z,85.76
2022-12-03T00:23:38.646Z,86.10
2022-12-03T00:25:59.259Z,86.13
2022-12-03T00:28:16.170Z,85.53
2022-12-03T00:30:33.559Z,86.43
2022-12-03T00:32:50.941Z,86.11
2022-12-03T00:35:07.970Z,85.88
2022-12-03T00:37:24.911Z,85.97
2022-12-03T00:39:41.825Z,85.92
2022-12-03T00:41:59.217Z,84.30
2022-12-03T00:44:16.355Z,85.32
2022-12-03T00:46:33.362Z,85.47
2022-12-03T00:48:51.571Z,86.03
2022-12-03T00:51:08.575Z,86.04
2022-12-03T00:53:25.928Z,86.09
2022-12-03T00:55:43.214Z,85.46
2022-12-03T00:58:00.178Z,86.00
2022-12-03T01:00:17.255Z,85.22
2022-12-03T01:02:34.407Z,85.37
2022-12-03T01:04:51.739Z,85.14
2022-12-03T01:07:09.087Z,86.37
2022-12-03T01:09:27.102Z,85.14
2022-12-03T01:11:45.185Z,84.96
2022-12-03T01:14:02.150Z,85.09
2022-12-03T01:16:20.303Z,85.59
2022-12-03T01:18:37.591Z,85.68
2022-12-03T01:20:54.668Z,85.54
2022-12-03T01:23:12.316Z,85.55
2022-12-03T01:25:30.764Z,85.32
2022-12-03T01:27:48.189Z,85.70
2022-12-03T01:30:05.155Z,85.49
2022-12-03T01:32:22.149Z,86.04
2022-12-03T01:34:39.728Z,85.65
2022-12-03T01:36:56.855Z,85.76
2022-12-03T01:39:13.810Z,85.53
2022-12-03T01:41:31.211Z,86.04
2022-12-03T01:43:48.350Z,85.72
2022-12-03T01:46:07.018Z,84.54
2022-12-03T01:48:24.012Z,84.94
2022-12-03T01:50:41.452Z,85.28
2022-12-03T01:52:59.520Z,85.27
2022-12-03T01:55:16.511Z,85.44
2022-12-03T01:57:33.534Z,86.23
2022-12-03T01:59:50.642Z,86.41
2022-12-03T02:02:08.627Z,86.50
2022-12-03T02:04:26.924Z,86.20
2022-12-03T02:06:44.018Z,86.03
2022-12-03T02:09:02.138Z,85.56
2022-12-03T02:11:19.055Z,85.40
2022-12-03T02:13:36.055Z,85.89
2022-12-03T02:15:53.173Z,85.67
2022-12-03T02:18:10.322Z,86.34
2022-12-03T02:20:27.563Z,85.44
2022-12-03T02:22:45.463Z,86.20
2022-12-03T02:25:02.396Z,86.57
2022-12-03T02:27:19.721Z,86.25
2022-12-03T02:29:37.803Z,86.30
2022-12-03T02:31:55.114Z,86.41
2022-12-03T02:34:13.190Z,85.65
2022-12-03T02:36:30.119Z,86.30
2022-12-03T02:38:47.163Z,86.10
2022-12-03T02:41:04.476Z,85.36
2022-12-03T02:43:21.786Z,86.67
2022-12-03T02:45:38.850Z,86.23
2022-12-03T02:47:58.596Z,86.16
2022-12-03T02:50:15.759Z,86.13
2022-12-03T02:52:32.689Z,86.79
2022-12-03T02:54:50.050Z,86.21
2022-12-03T02:57:06.965Z,86.42
2022-12-03T02:59:24.324Z,85.93
2022-12-03T03:01:41.395Z,86.33
2022-12-03T03:03:58.422Z,86.73
2022-12-03T03:06:15.495Z,85.65
2022-12-03T03:08:32.438Z,85.45
2022-12-03T03:10:49.424Z,86.05
2022-12-03T03:13:06.434Z,85.57
2022-12-03T03:15:23.377Z,86.67
2022-12-03T03:17:40.616Z,86.29
2022-12-03T03:19:57.933Z,85.30
2022-12-03T03:22:15.189Z,86.26
2022-12-03T03:24:32.209Z,85.94
2022-12-03T03:26:50.489Z,85.71
2022-12-03T03:29:07.502Z,84.77
2022-12-03T03:31:24.478Z,86.14
2022-12-03T03:33:41.829Z,85.31
2022-12-03T03:35:58.765Z,85.51
2022-12-03T03:38:15.737Z,85.39
2022-12-03T03:40:32.807Z,86.03
2022-12-03T03:42:49.734Z,85.81
2022-12-03T03:45:06.829Z,85.09
2022-12-03T03:47:23.825Z,86.29
2022-12-03T03:49:40.754Z,85.29
2022-12-03T03:51:57.843Z,85.37
2022-12-03T03:54:17.047Z,86.33
2022-12-03T03:56:34.029Z,85.57
2022-12-03T03:58:52.316Z,85.37
2022-12-03T04:01:09.341Z,85.15
2022-12-03T04:03:27.352Z,85.58
2022-12-03T04:05:44.272Z,85.79
2022-12-03T04:08:01.274Z,85.54
2022-12-03T04:10:18.240Z,85.68
2022-12-03T04:12:35.573Z,84.85
2022-12-03T04:14:52.920Z,86.05
2022-12-03T04:17:10.457Z,85.11
2022-12-03T04:19:27.359Z,85.84
2022-12-03T04:21:44.885Z,85.51
2022-12-03T04:24:01.798Z,84.67
2022-12-03T04:26:18.745Z,84.63
2022-12-03T04:28:35.790Z,85.62
2022-12-03T04:30:53.693Z,85.79
2022-12-03T04:33:10.982Z,84.93
2022-12-03T04:35:28.402Z,85.29
2022-12-03T04:37:45.424Z,84.43
2022-12-03T04:40:02.337Z,85.08
2022-12-03T04:42:19.341Z,85.50
2022-12-03T04:44:36.348Z,85.04
2022-12-03T04:46:53.391Z,85.01
2022-12-03T04:49:10.719Z,85.35
2022-12-03T04:51:27.669Z,85.41
2022-12-03T04:53:46.352Z,85.47
2022-12-03T04:56:03.612Z,85.99
2022-12-03T04:58:20.576Z,85.37
2022-12-03T05:00:37.481Z,85.68
2022-12-03T05:02:54.806Z,85.15
2022-12-03T05:05:12.198Z,85.27
2022-12-03T05:07:29.761Z,85.62
2022-12-03T05:09:46.824Z,85.37
2022-12-03T05:12:04.719Z,85.31
2022-12-03T05:14:21.735Z,85.57
2022-12-03T05:16:38.724Z,86.00
2022-12-03T05:18:56.106Z,84.84
2022-12-03T05:21:13.104Z,84.63
2022-12-03T05:23:30.341Z,85.11
2022-12-03T05:25:47.415Z,85.05
2022-12-03T05:28:04.411Z,84.71
2022-12-03T05:30:21.362Z,84.84
2022-12-03T05:32:38.242Z,85.62
2022-12-03T05:34:55.499Z,85.52
2022-12-03T05:37:12.985Z,84.67
2022-12-03T05:39:29.921Z,84.45
2022-12-03T05:41:47.180Z,84.74
2022-12-03T05:44:04.221Z,85.42
2022-12-03T05:46:21.316Z,85.81
2022-12-03T05:48:38.450Z,86.08
2022-12-03T05:50:56.877Z,85.84
2022-12-03T05:53:13.816Z,86.13
2022-12-03T05:55:30.823Z,86.15
2022-12-03T05:57:48.749Z,86.41
2022-12-03T06:00:05.691Z,85.88
2022-12-03T06:02:22.987Z,85.87
2022-12-03T06:04:39.919Z,86.59
2022-12-03T06:06:57.157Z,85.72
2022-12-03T06:09:14.454Z,85.56
2022-12-03T06:11:31.390Z,85.62
2022-12-03T06:13:48.593Z,86.44
2022-12-03T06:16:05.874Z,86.25
2022-12-03T06:18:24.150Z,86.38
2022-12-03T06:20:41.116Z,85.63
2022-12-03T06:22:58.403Z,85.23
2022-12-03T06:25:15.659Z,84.98
2022-12-03T06:27:32.904Z,85.28
2022-12-03T06:29:49.975Z,85.14
2022-12-03T06:32:06.961Z,85.82
2022-12-03T06:34:23.990Z,86.66
2022-12-03T06:36:40.886Z,85.54
2022-12-03T06:38:57.911Z,86.52
2022-12-03T06:41:15.194Z,85.87
2022-12-03T06:43:32.028Z,86.66
2022-12-03T06:45:48.927Z,86.26
2022-12-03T06:48:06.909Z,86.13
2022-12-03T06:50:24.207Z,85.75
2022-12-03T06:52:41.535Z,86.40
2022-12-03T06:54:58.471Z,86.03
2022-12-03T06:57:15.525Z,85.88
2022-12-03T06:59:32.377Z,86.45
2022-12-03T07:01:49.772Z,86.58
2022-12-03T07:04:06.689Z,86.68
2022-12-03T07:06:23.893Z,86.38
2022-12-03T07:08:41.210Z,85.49
2022-12-03T07:10:58.227Z,86.51
2022-12-03T07:13:15.170Z,86.56
2022-12-03T07:15:32.221Z,86.61
2022-12-03T07:17:49.265Z,86.73
2022-12-03T07:20:06.294Z,86.54
2022-12-03T07:22:25.409Z,86.50
2022-12-03T07:24:43.334Z,86.05
2022-12-03T07:27:01.584Z,85.84
2022-12-03T07:29:18.608Z,86.71
2022-12-03T07:31:35.518Z,86.24
2022-12-03T07:33:52.622Z,86.89
2022-12-03T07:36:09.852Z,86.32
2022-12-03T07:38:29.640Z,86.30
2022-12-03T07:40:47.098Z,87.16
2022-12-03T07:43:04.442Z,86.13
2022-12-03T07:45:21.666Z,87.02
2022-12-03T07:47:38.889Z,86.84
2022-12-03T07:49:56.271Z,86.21
2022-12-03T07:52:13.490Z,86.38
2022-12-03T07:54:30.394Z,85.80
2022-12-03T07:56:47.312Z,86.55
2022-12-03T07:59:04.324Z,86.08
2022-12-03T08:01:21.287Z,86.54
2022-12-03T08:03:38.394Z,85.99
2022-12-03T08:05:56.237Z,85.91
2022-12-03T08:08:13.610Z,86.25
2022-12-03T08:10:30.882Z,86.71
2022-12-03T08:12:48.125Z,86.99
2022-12-03T08:15:05.407Z,87.34
2022-12-03T08:17:22.789Z,86.18
2022-12-03T08:19:39.821Z,86.88
2022-12-03T08:22:01.318Z,86.63
2022-12-03T08:24:18.603Z,86.44
2022-12-03T08:26:35.595Z,86.99
2022-12-03T08:28:52.943Z,87.04
2022-12-03T08:31:10.309Z,85.41
2022-12-03T08:33:27.250Z,86.08
2022-12-03T08:35:44.302Z,85.99
2022-12-03T08:38:01.297Z,85.78
2022-12-03T08:40:18.556Z,85.71
2022-12-03T08:42:35.840Z,86.02
2022-12-03T08:44:53.309Z,86.13
2022-12-03T08:47:10.565Z,86.26
2022-12-03T08:49:27.791Z,85.23
2022-12-03T08:51:44.772Z,85.20
2022-12-03T08:54:02.519Z,86.78
2022-12-03T08:56:19.494Z,86.16
2022-12-03T08:58:38.390Z,86.83
2022-12-03T09:00:55.529Z,86.34
2022-12-03T09:03:12.605Z,86.56
2022-12-03T09:05:29.947Z,86.82
2022-12-03T09:07:47.005Z,85.53
2022-12-03T09:10:04.025Z,85.69
2022-12-03T09:12:20.982Z,86.51
2022-12-03T09:14:39.719Z,86.00
2022-12-03T09:16:56.817Z,85.88
2022-12-03T09:19:13.809Z,86.37
2022-12-03T09:21:31.055Z,85.99
2022-12-03T09:23:48.081Z,85.04
2022-12-03T09:26:05.004Z,85.13
2022-12-03T09:28:22.298Z,85.64
2022-12-03T09:30:39.608Z,85.63
2022-12-03T09:32:56.877Z,84.85
2022-12-03T09:35:14.224Z,85.19
2022-12-03T09:37:32.207Z,85.97
2022-12-03T09:39:50.195Z,84.33
2022-12-03T09:42:07.113Z,84.39
2022-12-03T09:44:24.298Z,83.79
2022-12-03T09:46:41.598Z,83.93
2022-12-03T09:48:59.581Z,84.83
2022-12-03T09:51:16.835Z,84.14
2022-12-03T09:53:38.060Z,84.34
2022-12-03T09:55:58.138Z,83.38
2022-12-03T09:58:15.073Z,83.96
2022-12-03T10:00:32.366Z,83.33
2022-12-03T10:02:49.290Z,84.42
2022-12-03T10:05:06.364Z,84.10
2022-12-03T10:07:23.510Z,83.92
2022-12-03T10:09:40.546Z,83.62
2022-12-03T10:11:58.816Z,84.17
2022-12-03T10:14:15.731Z,83.86
2022-12-03T10:16:33.165Z,84.32
2022-12-03T10:18:50.494Z,83.97
2022-12-03T10:21:07.486Z,84.46
2022-12-03T10:23:24.805Z,83.59
2022-12-03T10:25:42.104Z,84.52
2022-12-03T10:27:59.382Z,83.84
2022-12-03T10:30:16.623Z,84.60
2022-12-03T10:32:33.614Z,85.09
2022-12-03T10:34:50.937Z,84.45
2022-12-03T10:37:08.212Z,84.42
2022-12-03T10:39:25.221Z,83.81
2022-12-03T10:41:42.296Z,83.87
2022-12-03T10:43:59.592Z,83.70
2022-12-03T10:46:17.001Z,84.41
2022-12-03T10:48:34.307Z,83.56
2022-12-03T10:50:52.330Z,84.03
2022-12-03T10:53:09.697Z,83.87
2022-12-03T10:55:26.809Z,84.59
2022-12-03T10:57:45.889Z,84.43
2022-12-03T11:00:03.542Z,83.62
2022-12-03T11:02:20.533Z,83.50
2022-12-03T11:04:38.541Z,83.91
2022-12-03T11:06:55.771Z,82.54
2022-12-03T11:09:12.681Z,82.30
2022-12-03T11:11:30.022Z,83.16
2022-12-03T11:13:47.055Z,83.53
2022-12-03T11:16:04.355Z,82.56
2022-12-03T11:18:21.731Z,82.20
2022-12-03T11:20:39.763Z,83.29
2022-12-03T11:22:57.841Z,82.68
2022-12-03T11:25:14.834Z,81.80
2022-12-03T11:27:31.812Z,83.02
2022-12-03T11:29:48.823Z,82.69
2022-12-03T11:32:05.868Z,81.96
2022-12-03T11:34:22.885Z,81.94
2022-12-03T11:37:00.837Z,82.81
2022-12-03T11:39:16.881Z,82.65
2022-12-03T11:41:33.910Z,81.70
2022-12-03T11:43:51.422Z,82.64
2022-12-03T11:46:09.516Z,82.42
2022-12-03T11:48:26.804Z,81.61
2022-12-03T11:50:44.010Z,82.00
2022-12-03T11:53:00.956Z,82.11
2022-12-03T11:55:18.065Z,83.42
2022-12-03T11:57:36.111Z,83.39
2022-12-03T11:59:53.637Z,83.09
2022-12-03T12:02:11.155Z,83.77
2022-12-03T12:04:28.356Z,83.60
2022-12-03T12:06:48.817Z,83.69
2022-12-03T12:09:09.038Z,83.43
2022-12-03T12:11:26.241Z,83.39
2022-12-03T12:13:44.311Z,82.88
2022-12-03T12:16:01.771Z,83.76
2022-12-03T12:18:18.760Z,83.60
2022-12-03T12:20:35.812Z,83.66
2022-12-03T12:22:52.887Z,82.55
2022-12-03T12:25:10.355Z,82.78
2022-12-03T12:27:27.715Z,82.86
2022-12-03T12:29:44.605Z,82.58
2022-12-03T12:32:01.761Z,82.69
2022-12-03T12:34:18.867Z,82.78
2022-12-03T12:36:35.794Z,82.46
2022-12-03T12:38:52.742Z,83.27
2022-12-03T12:41:09.781Z,83.08
2022-12-03T12:43:26.824Z,81.93
2022-12-03T12:45:43.858Z,82.83
2022-12-03T12:48:01.829Z,81.84
2022-12-03T12:50:20.210Z,82.03
2022-12-03T12:52:37.126Z,82.78
2022-12-03T12:54:54.260Z,83.31
2022-12-03T12:57:12.585Z,81.19
2022-12-03T12:59:29.575Z,82.47
2022-12-03T13:01:46.688Z,81.88
2022-12-03T13:04:04.039Z,82.22
2022-12-03T13:06:21.337Z,82.17
2022-12-03T13:08:38.416Z,82.84
2022-12-03T13:10:55.904Z,82.14
2022-12-03T13:13:13.855Z,82.57
2022-12-03T13:15:31.104Z,82.21
2022-12-03T13:17:49.163Z,82.77
2022-12-03T13:20:08.109Z,83.22
2022-12-03T13:22:25.715Z,82.88
2022-12-03T13:24:42.715Z,82.77
2022-12-03T13:26:59.686Z,82.77
2022-12-03T13:29:16.573Z,82.81
2022-12-03T13:31:34.007Z,82.35
2022-12-03T13:33:51.552Z,81.51
2022-12-03T13:36:09.492Z,82.43
2022-12-03T13:38:26.503Z,83.59
2022-12-03T13:40:44.814Z,83.53
2022-12-03T13:43:17.074Z,83.40
2022-12-03T13:45:34.269Z,83.15
2022-12-03T13:47:51.271Z,83.44
2022-12-03T13:50:08.215Z,83.17
2022-12-03T13:52:25.403Z,83.17
2022-12-03T13:54:42.416Z,83.40
2022-12-03T13:56:59.406Z,82.29
2022-12-03T13:59:18.384Z,81.95
2022-12-03T14:01:37.543Z,82.69
2022-12-03T14:03:54.690Z,83.42
2022-12-03T14:06:12.077Z,83.20
2022-12-03T14:08:30.393Z,83.35
2022-12-03T14:10:47.701Z,82.61
2022-12-03T14:13:04.990Z,83.40
2022-12-03T14:15:22.098Z,83.32
2022-12-03T14:17:39.415Z,83.33
2022-12-03T14:19:57.683Z,82.66
2022-12-03T14:22:14.880Z,82.39
2022-12-03T14:24:31.947Z,82.79
2022-12-03T14:26:49.243Z,82.12
2022-12-03T14:29:08.883Z,84.14
2022-12-03T14:31:26.183Z,83.70
2022-12-03T14:33:43.310Z,83.21
2022-12-03T14:36:00.402Z,83.18
2022-12-03T14:38:17.648Z,82.67
2022-12-03T14:40:34.814Z,83.69
2022-12-03T14:42:52.084Z,83.85
2022-12-03T14:45:09.351Z,82.84
2022-12-03T14:47:26.404Z,83.37
2022-12-03T14:49:43.328Z,84.45
2022-12-03T14:52:00.650Z,83.70
2022-12-03T14:54:17.516Z,84.89
2022-12-03T14:56:34.848Z,83.54
2022-12-03T14:58:52.174Z,84.77
2022-12-03T15:01:10.285Z,84.11
2022-12-03T15:03:27.333Z,84.13
2022-12-03T15:05:44.577Z,84.22
2022-12-03T15:08:01.770Z,83.53
2022-12-03T15:10:19.203Z,83.71
2022-12-03T15:12:36.246Z,83.15
2022-12-03T15:14:53.537Z,83.76
2022-12-03T15:17:10.463Z,84.36
2022-12-03T15:19:27.524Z,83.88
2022-12-03T15:21:44.798Z,83.79
2022-12-03T15:24:01.747Z,83.17
2022-12-03T15:26:19.111Z,84.70
2022-12-03T15:28:36.142Z,84.09
2022-12-03T15:30:53.457Z,84.22
2022-12-03T15:33:11.773Z,83.87
2022-12-03T15:35:28.854Z,84.45
2022-12-03T15:37:45.746Z,84.60
2022-12-03T15:40:02.738Z,84.93
2022-12-03T15:42:19.815Z,84.52
2022-12-03T15:44:37.994Z,83.47
2022-12-03T15:46:54.868Z,83.72
2022-12-03T15:49:12.246Z,83.30
2022-12-03T15:51:29.278Z,85.13
2022-12-03T15:53:46.537Z,84.24
2022-12-03T15:56:04.408Z,84.07
2022-12-03T15:58:21.468Z,83.96
2022-12-03T16:00:38.716Z,85.00
2022-12-03T16:02:55.981Z,85.58
2022-12-03T16:05:13.017Z,84.03
2022-12-03T16:07:30.455Z,85.03
2022-12-03T16:09:47.392Z,85.00
2022-12-03T16:12:04.457Z,85.08
2022-12-03T16:14:22.498Z,85.30
2022-12-03T16:16:39.555Z,84.67
2022-12-03T16:18:56.532Z,85.01
2022-12-03T16:21:14.822Z,85.20
2022-12-03T16:23:31.720Z,84.72
2022-12-03T16:25:48.793Z,85.52
2022-12-03T16:28:06.016Z,84.89
2022-12-03T16:30:22.981Z,85.44
2022-12-03T16:32:40.276Z,84.90
2022-12-03T16:34:57.197Z,84.84
2022-12-03T16:37:14.421Z,84.75
2022-12-03T16:39:33.453Z,84.58
2022-12-03T16:41:50.426Z,83.89
2022-12-03T16:44:07.741Z,83.88
2022-12-03T16:46:24.772Z,84.89
2022-12-03T16:48:42.134Z,83.74
2022-12-03T16:50:59.446Z,85.51
2022-12-03T16:53:16.368Z,85.69
2022-12-03T16:55:34.224Z,85.17
2022-12-03T16:57:51.286Z,86.03
2022-12-03T17:00:08.580Z,85.85
2022-12-03T17:02:25.603Z,85.36
2022-12-03T17:04:42.572Z,84.58
2022-12-03T17:06:59.630Z,85.96
2022-12-03T17:09:16.522Z,85.60
2022-12-03T17:11:33.399Z,84.72
2022-12-03T17:13:50.698Z,85.36
2022-12-03T17:16:07.819Z,85.68
2022-12-03T17:18:25.694Z,84.77
2022-12-03T17:20:42.643Z,85.56
2022-12-03T17:22:59.938Z,85.16
2022-12-03T17:25:17.007Z,85.24
2022-12-03T17:27:34.047Z,85.82
2022-12-03T17:29:51.610Z,85.47
2022-12-03T17:32:08.627Z,85.32
2022-12-03T17:34:25.581Z,85.55
2022-12-03T17:36:42.899Z,85.11
2022-12-03T17:38:59.813Z,86.22
2022-12-03T17:41:16.924Z,86.18
2022-12-03T17:43:34.191Z,84.91
2022-12-03T17:45:52.438Z,86.11
2022-12-03T17:48:10.633Z,85.22
2022-12-03T17:50:27.712Z,84.98
2022-12-03T17:52:44.954Z,86.13
2022-12-03T17:55:11.249Z,85.77
2022-12-03T17:57:30.129Z,86.14
2022-12-03T17:59:47.421Z,85.14
2022-12-03T18:02:04.636Z,86.16
2022-12-03T18:04:21.653Z,85.88
2022-12-03T18:06:38.972Z,84.71
2022-12-03T18:08:55.998Z,85.90
2022-12-03T18:11:12.939Z,86.44
2022-12-03T18:13:29.990Z,86.45
2022-12-03T18:15:48.360Z,85.09
2022-12-03T18:18:05.437Z,85.86
2022-12-03T18:20:22.382Z,85.75
2022-12-03T18:22:39.681Z,86.40
2022-12-03T18:24:56.640Z,86.56
2022-12-03T18:27:13.652Z,86.08
2022-12-03T18:29:30.741Z,86.17
2022-12-03T18:31:47.872Z,86.04
2022-12-03T18:34:05.208Z,85.89
2022-12-03T18:36:22.308Z,86.01
2022-12-03T18:38:39.355Z,86.37
2022-12-03T18:40:56.415Z,86.42
2022-12-03T18:43:13.695Z,85.51
2022-12-03T18:45:31.656Z,85.92
2022-12-03T18:47:49.000Z,86.11
2022-12-03T18:50:06.408Z,86.51
2022-12-03T18:52:23.628Z,86.87
2022-12-03T18:54:40.675Z,86.56
2022-12-03T18:56:57.667Z,86.39
2022-12-03T18:59:14.743Z,85.77
2022-12-03T19:01:31.742Z,86.51
2022-12-03T19:03:49.017Z,85.88
2022-12-03T19:06:06.198Z,86.53
2022-12-03T19:08:23.494Z,85.96
2022-12-03T19:10:40.425Z,86.56
2022-12-03T19:12:57.424Z,85.64
2022-12-03T19:15:14.405Z,85.27
2022-12-03T19:17:31.571Z,85.15
2022-12-03T19:19:48.543Z,86.20
2022-12-03T19:22:05.515Z,86.24
2022-12-03T19:24:25.059Z,85.90
2022-12-03T19:26:42.415Z,85.97
2022-12-03T19:28:59.432Z,85.46
2022-12-03T19:31:16.887Z,85.19
2022-12-03T19:33:34.246Z,86.26
2022-12-03T19:35:51.523Z,86.05
2022-12-03T19:38:08.451Z,85.62
2022-12-03T19:40:25.364Z,85.38
2022-12-03T19:42:42.658Z,86.29
2022-12-03T19:44:59.961Z,85.47
2022-12-03T19:47:17.028Z,84.70
2022-12-03T19:49:34.017Z,85.29
2022-12-03T19:51:51.123Z,85.95
2022-12-03T19:54:08.046Z,86.51
2022-12-03T19:56:25.043Z,85.16
2022-12-03T19:58:42.086Z,86.44
2022-12-03T20:00:59.130Z,85.81
2022-12-03T20:03:16.172Z,86.40
2022-12-03T20:05:34.064Z,85.73
2022-12-03T20:07:51.210Z,86.38
2022-12-03T20:10:08.199Z,85.72
2022-12-03T20:12:25.247Z,85.60
2022-12-03T20:14:42.481Z,85.70
2022-12-03T20:16:59.775Z,85.69
2022-12-03T20:19:17.012Z,86.00
2022-12-03T20:21:33.981Z,85.90
2022-12-03T20:23:51.723Z,85.43
2022-12-03T20:26:08.663Z,85.83
2022-12-03T20:28:25.659Z,85.40
2022-12-03T20:30:42.823Z,85.79
2022-12-03T20:33:00.125Z,86.26
2022-12-03T20:35:17.167Z,85.80
2022-12-03T20:37:34.537Z,85.10
2022-12-03T20:39:51.658Z,85.46
2022-12-03T20:42:08.639Z,86.47
2022-12-03T20:44:25.903Z,85.18
2022-12-03T20:46:42.870Z,85.49
2022-12-03T20:49:00.102Z,85.65
2022-12-03T20:51:17.319Z,85.85
2022-12-03T20:53:34.315Z,86.08
2022-12-03T20:55:51.423Z,86.03
2022-12-03T20:58:08.350Z,84.81
2022-12-03T21:00:25.951Z,85.83
2022-12-03T21:02:43.014Z,86.19
2022-12-03T21:05:01.136Z,85.50
2022-12-03T21:07:18.446Z,84.99
2022-12-03T21:09:35.385Z,85.37
2022-12-03T21:11:53.338Z,84.79
2022-12-03T21:14:10.599Z,84.60
2022-12-03T21:16:51.971Z,84.05
2022-12-03T21:19:05.674Z,85.21
2022-12-03T21:21:22.676Z,85.27
2022-12-03T21:23:39.751Z,86.28
2022-12-03T21:25:56.834Z,84.71
2022-12-03T21:28:13.761Z,85.06
2022-12-03T21:30:30.989Z,85.86
2022-12-03T21:32:48.986Z,85.13
2022-12-03T21:35:05.921Z,84.52
2022-12-03T21:37:24.264Z,85.12
2022-12-03T21:39:42.321Z,84.60
2022-12-03T21:42:18.910Z,84.30
2022-12-03T21:44:36.221Z,84.45
2022-12-03T21:47:10.609Z,84.71
2022-12-03T21:49:30.481Z,84.45
2022-12-03T21:51:47.615Z,83.79
2022-12-03T21:54:04.875Z,84.39
2022-12-03T21:56:22.301Z,84.72
2022-12-03T21:58:39.611Z,84.13
2022-12-03T22:00:56.942Z,84.15
2022-12-03T22:03:14.221Z,84.79
2022-12-03T22:05:31.382Z,84.36
2022-12-03T22:07:48.435Z,84.36
2022-12-03T22:10:05.435Z,84.64
2022-12-03T22:12:22.726Z,84.50
2022-12-03T22:14:39.698Z,84.31
2022-12-03T22:16:57.699Z,84.75
2022-12-03T22:19:14.685Z,85.68
2022-12-03T22:21:31.727Z,84.72
2022-12-03T22:23:49.997Z,84.92
2022-12-03T22:26:06.948Z,84.89
2022-12-03T22:28:24.038Z,84.71
2022-12-03T22:30:41.355Z,85.70
2022-12-03T22:32:58.702Z,84.35
2022-12-03T22:35:15.679Z,84.65
2022-12-03T22:37:32.755Z,85.05
2022-12-03T22:39:49.824Z,84.16
2022-12-03T22:42:06.886Z,84.96
2022-12-03T22:44:25.140Z,84.98
2022-12-03T22:46:42.495Z,84.32
2022-12-03T22:49:06.418Z,84.47
2022-12-03T22:51:24.228Z,84.66
2022-12-03T22:53:41.150Z,84.23
2022-12-03T22:55:58.408Z,83.21
2022-12-03T22:58:15.376Z,83.78
2022-12-03T23:00:32.282Z,83.61
2022-12-03T23:02:50.648Z,84.10
2022-12-03T23:05:07.751Z,84.04
2022-12-03T23:07:24.978Z,84.13
2022-12-03T23:09:42.034Z,83.29
2022-12-03T23:11:59.232Z,84.13
2022-12-03T23:14:16.305Z,83.53
2022-12-03T23:16:33.381Z,83.42
2022-12-03T23:18:50.591Z,83.19
2022-12-03T23:21:08.612Z,84.14
2022-12-03T23:23:25.525Z,84.17
2022-12-03T23:25:42.501Z,83.15
2022-12-03T23:27:59.520Z,83.67
2022-12-03T23:30:16.764Z,84.08
2022-12-03T23:32:34.669Z,83.39
2022-12-03T23:34:51.805Z,83.87
2022-12-03T23:37:09.001Z,83.84
2022-12-03T23:39:25.977Z,83.54
2022-12-03T23:41:43.148Z,83.30
2022-12-03T23:44:00.448Z,83.84
2022-12-03T23:46:17.506Z,83.93
2022-12-03T23:48:35.313Z,83.05
2022-12-03T23:50:52.632Z,82.96
2022-12-03T23:53:09.954Z,82.77
2022-12-03T23:55:27.239Z,82.51
2022-12-03T23:57:45.500Z,83.32
